Time;durP1;ratioP1;P1;durP2;ratioP2;P2;SDS_P1;SDS_P2;PMS_P1;PMS_P2;Temp;Humidity;BMP_temperature;BMP_pressure;BME280_temperature;BME280_humidity;BME280_pressure;Samples;Min_cycle;Max_cycle;Signal;HPM_P1;HPM_P2
2022/07/23 00:01:32;;;;;;;337.88;320.90;;;17.90;99.90;;;;;;5085809;28;20182;-75
2022/07/23 00:03:58;;;;;;;359.08;340.25;;;17.80;99.90;;;;;;5083753;28;20516;-75
2022/07/23 00:06:24;;;;;;;347.90;330.27;;;17.80;99.90;;;;;;5058485;28;20196;-75
2022/07/23 00:08:50;;;;;;;385.13;363.95;;;17.80;99.90;;;;;;5083632;28;20185;-75
2022/07/23 00:11:16;;;;;;;349.17;331.13;;;17.90;99.90;;;;;;5073109;28;20279;-76
2022/07/23 00:13:42;;;;;;;357.38;338.02;;;17.90;99.90;;;;;;5073228;28;20252;-76
2022/07/23 00:16:08;;;;;;;348.58;330.80;;;17.80;99.90;;;;;;5083970;28;20192;-74
2022/07/23 00:18:34;;;;;;;333.80;316.48;;;17.80;99.90;;;;;;5083605;28;20209;-75
2022/07/23 00:20:59;;;;;;;371.48;350.80;;;17.80;99.90;;;;;;5081150;28;20221;-75
2022/07/23 00:23:26;;;;;;;335.23;317.77;;;17.80;99.90;;;;;;5075934;28;20664;-75
2022/07/23 00:25:52;;;;;;;356.23;337.45;;;17.70;99.90;;;;;;5073812;28;20235;-75
2022/07/23 00:28:18;;;;;;;364.33;344.58;;;17.60;99.90;;;;;;5074099;28;20640;-75
2022/07/23 00:30:44;;;;;;;379.65;359.88;;;17.60;99.90;;;;;;5073762;28;20657;-75
2022/07/23 00:33:10;;;;;;;343.08;324.95;;;17.50;99.90;;;;;;5067626;28;20287;-75
2022/07/23 00:35:40;;;;;;;345.73;327.88;;;17.60;99.90;;;;;;5061452;28;20307;-75
2022/07/23 00:38:09;;;;;;;341.80;325.08;;;17.60;99.90;;;;;;5069062;28;20275;-75
2022/07/23 00:40:35;;;;;;;372.88;353.15;;;17.60;99.90;;;;;;5082678;28;20205;-74
2022/07/23 00:43:01;;;;;;;349.73;331.33;;;17.60;99.90;;;;;;5073135;28;20303;-75
2022/07/23 00:45:27;;;;;;;391.13;369.63;;;17.60;99.90;;;;;;5072322;28;20208;-75
2022/07/23 00:47:53;;;;;;;356.23;337.42;;;17.70;99.90;;;;;;5074553;28;20173;-75
2022/07/23 00:50:19;;;;;;;339.75;321.17;;;17.60;99.90;;;;;;5070483;28;20203;-75
2022/07/23 00:52:45;;;;;;;376.30;357.02;;;17.50;99.90;;;;;;5087514;28;20184;-75
2022/07/23 00:55:11;;;;;;;348.08;329.83;;;17.40;99.90;;;;;;5057915;28;20201;-75
2022/07/23 00:57:38;;;;;;;339.10;321.00;;;17.40;99.90;;;;;;5081758;28;20176;-75
2022/07/23 01:00:10;;;;;;;395.73;374.63;;;17.40;99.90;;;;;;5079385;28;20258;-75
2022/07/23 01:02:36;;;;;;;339.23;321.42;;;17.40;99.90;;;;;;5072648;28;20180;-75
2022/07/23 01:05:02;;;;;;;330.90;312.95;;;17.30;99.90;;;;;;5054897;28;20231;-75
2022/07/23 01:07:28;;;;;;;332.27;315.05;;;17.30;99.90;;;;;;5075984;28;20265;-75
2022/07/23 01:09:54;;;;;;;333.60;316.75;;;17.40;99.90;;;;;;5091800;28;20288;-75
2022/07/23 01:12:20;;;;;;;343.63;326.20;;;17.30;99.90;;;;;;5080404;28;20180;-75
2022/07/23 01:14:57;;;;;;;369.63;350.67;;;17.20;99.90;;;;;;5077671;28;20178;-75
2022/07/23 01:17:23;;;;;;;328.70;311.98;;;17.20;99.90;;;;;;5092084;28;20273;-76
2022/07/23 01:19:48;;;;;;;320.77;304.55;;;17.20;99.90;;;;;;5091028;28;20184;-75
2022/07/23 01:22:17;;;;;;;373.95;354.23;;;17.20;99.90;;;;;;5084465;28;20182;-75
2022/07/23 01:24:43;;;;;;;356.50;336.83;;;17.10;99.90;;;;;;5067921;28;20180;-75
2022/07/23 01:27:08;;;;;;;345.13;327.17;;;17.00;99.90;;;;;;5079778;28;20573;-75
2022/07/23 01:29:34;;;;;;;341.88;323.25;;;16.90;99.90;;;;;;5054390;28;20201;-75
2022/07/23 01:32:00;;;;;;;357.33;338.17;;;16.90;99.90;;;;;;5063646;28;20637;-75
2022/07/23 01:34:26;;;;;;;335.98;318.65;;;16.90;99.90;;;;;;5058411;28;20190;-76
2022/07/23 01:36:51;;;;;;;341.33;322.58;;;16.90;99.90;;;;;;5085651;28;20189;-75
2022/07/23 01:39:17;;;;;;;366.65;346.55;;;16.90;99.90;;;;;;5082155;28;20185;-75
2022/07/23 01:41:43;;;;;;;332.45;315.80;;;16.70;99.90;;;;;;5087591;28;20242;-75
2022/07/23 01:44:08;;;;;;;362.05;341.73;;;16.80;99.90;;;;;;5091863;28;20180;-75
2022/07/23 01:46:35;;;;;;;370.60;349.85;;;16.80;99.90;;;;;;5078339;28;20185;-75
2022/07/23 01:49:00;;;;;;;386.25;365.13;;;16.70;99.90;;;;;;5054201;28;20185;-75
2022/07/23 01:51:26;;;;;;;365.55;345.27;;;16.80;99.90;;;;;;5076731;28;20648;-75
2022/07/23 01:53:52;;;;;;;387.33;366.65;;;16.80;99.90;;;;;;5076922;28;20267;-75
2022/07/23 01:56:20;;;;;;;399.30;377.88;;;16.70;99.90;;;;;;5063250;28;20185;-75
2022/07/23 01:58:45;;;;;;;405.05;382.27;;;16.80;99.90;;;;;;5071878;28;20213;-76
2022/07/23 02:01:11;;;;;;;379.88;360.00;;;16.80;99.90;;;;;;5065528;28;20225;-75
2022/07/23 02:03:36;;;;;;;368.60;348.63;;;16.80;99.90;;;;;;5069430;28;20648;-75
2022/07/23 02:06:02;;;;;;;380.50;359.38;;;16.80;99.90;;;;;;5069737;28;20208;-75
2022/07/23 02:08:28;;;;;;;411.17;388.08;;;16.70;99.90;;;;;;5072647;28;20184;-75
2022/07/23 02:10:53;;;;;;;398.10;375.60;;;16.80;99.90;;;;;;5089997;28;20235;-75
2022/07/23 02:13:19;;;;;;;420.13;397.02;;;16.70;99.90;;;;;;5080038;28;20188;-72
2022/07/23 02:15:47;;;;;;;416.05;392.40;;;16.70;99.90;;;;;;5087024;28;20189;-75
2022/07/23 02:18:12;;;;;;;380.17;360.25;;;16.60;99.90;;;;;;5080301;28;20180;-75
2022/07/23 02:20:39;;;;;;;397.75;375.25;;;16.50;99.90;;;;;;5086132;28;20188;-75
2022/07/23 02:23:06;;;;;;;381.05;360.67;;;16.50;99.90;;;;;;5063025;28;20588;-74
2022/07/23 02:25:32;;;;;;;418.38;395.92;;;16.50;99.90;;;;;;5063102;28;20226;-75
2022/07/23 02:27:58;;;;;;;416.95;393.65;;;16.60;99.90;;;;;;5082065;28;20187;-74
2022/07/23 02:30:23;;;;;;;389.30;368.38;;;16.70;99.90;;;;;;5061162;28;20208;-74
2022/07/23 02:32:49;;;;;;;423.35;400.15;;;16.80;99.90;;;;;;5070299;28;20214;-75
2022/07/23 02:35:15;;;;;;;441.85;416.15;;;16.80;99.90;;;;;;5088665;28;20184;-75
2022/07/23 02:37:40;;;;;;;417.02;393.90;;;16.60;99.90;;;;;;5094169;28;20188;-74
2022/07/23 02:40:06;;;;;;;361.40;341.65;;;16.60;99.90;;;;;;5056933;28;20262;-75
2022/07/23 02:42:32;;;;;;;410.98;387.55;;;16.60;99.90;;;;;;5079738;28;20181;-74
2022/07/23 02:44:58;;;;;;;368.17;348.48;;;16.60;99.90;;;;;;5066193;28;20208;-73
2022/07/23 02:47:23;;;;;;;443.65;419.20;;;16.50;99.90;;;;;;5065239;28;20305;-75
2022/07/23 02:49:49;;;;;;;384.08;363.48;;;16.50;99.90;;;;;;5057050;28;20224;-75
2022/07/23 02:52:14;;;;;;;390.63;369.45;;;16.50;99.90;;;;;;5059776;28;20269;-75
2022/07/23 02:54:40;;;;;;;372.98;353.27;;;16.50;99.90;;;;;;5065207;28;20226;-75
2022/07/23 02:57:06;;;;;;;410.17;387.63;;;16.50;99.90;;;;;;5087350;28;20188;-76
2022/07/23 02:59:31;;;;;;;407.65;384.30;;;16.60;99.90;;;;;;5075523;28;20594;-75
2022/07/23 03:01:57;;;;;;;412.30;389.92;;;16.60;99.90;;;;;;5069898;28;20263;-75
2022/07/23 03:04:23;;;;;;;398.58;376.95;;;16.50;99.90;;;;;;5063687;28;20200;-75
2022/07/23 03:06:48;;;;;;;449.35;424.55;;;16.40;99.90;;;;;;5078231;28;20565;-75
2022/07/23 03:09:14;;;;;;;410.13;387.48;;;16.40;99.90;;;;;;5085040;28;20181;-74
2022/07/23 03:11:40;;;;;;;384.50;364.30;;;16.40;99.90;;;;;;5056983;28;20265;-75
2022/07/23 03:14:06;;;;;;;379.95;359.20;;;16.40;99.90;;;;;;5075853;28;20192;-75
2022/07/23 03:16:32;;;;;;;385.40;364.42;;;16.40;99.90;;;;;;5063818;28;20184;-75
2022/07/23 03:18:57;;;;;;;402.55;381.33;;;16.30;99.90;;;;;;5056022;28;20182;-75
2022/07/23 03:21:23;;;;;;;420.30;398.15;;;16.40;99.90;;;;;;5075806;28;20185;-76
2022/07/23 03:23:48;;;;;;;408.60;385.60;;;16.30;99.90;;;;;;5042252;28;20649;-75
2022/07/23 03:26:14;;;;;;;399.75;378.17;;;16.30;99.90;;;;;;5069507;28;20551;-75
2022/07/23 03:28:40;;;;;;;374.38;354.42;;;16.30;99.90;;;;;;5075927;28;20184;-75
2022/07/23 03:31:05;;;;;;;381.35;361.10;;;16.20;99.90;;;;;;5090830;28;20630;-76
2022/07/23 03:33:31;;;;;;;386.52;366.10;;;16.20;99.90;;;;;;5062671;28;20196;-75
2022/07/23 03:35:57;;;;;;;438.05;414.52;;;16.20;99.90;;;;;;5076037;28;20204;-76
2022/07/23 03:38:22;;;;;;;332.60;314.92;;;16.10;99.90;;;;;;5060676;28;20271;-76
2022/07/23 03:40:48;;;;;;;368.67;348.48;;;16.10;99.90;;;;;;5076061;28;20191;-76
2022/07/23 03:43:14;;;;;;;371.30;352.45;;;16.10;99.90;;;;;;5070748;28;20563;-76
2022/07/23 03:45:39;;;;;;;401.95;379.85;;;16.10;99.90;;;;;;5085183;28;20177;-76
2022/07/23 03:48:05;;;;;;;403.77;382.35;;;16.10;99.90;;;;;;5055057;28;20205;-75
2022/07/23 03:50:31;;;;;;;398.58;377.20;;;16.10;99.90;;;;;;5046252;28;20206;-76
2022/07/23 03:52:56;;;;;;;398.00;377.23;;;16.10;99.90;;;;;;5065723;28;20223;-76
2022/07/23 03:55:22;;;;;;;398.27;376.90;;;16.00;99.90;;;;;;5088299;28;20243;-76
2022/07/23 03:57:48;;;;;;;413.92;390.85;;;16.00;99.90;;;;;;5055655;28;20191;-76
2022/07/23 04:00:14;;;;;;;433.27;407.42;;;16.00;99.90;;;;;;5090217;28;20279;-76
2022/07/23 04:02:40;;;;;;;398.58;376.00;;;16.10;99.90;;;;;;5083434;28;20181;-75
2022/07/23 04:05:06;;;;;;;463.08;437.08;;;16.10;99.90;;;;;;5044659;28;20185;-75
2022/07/23 04:07:32;;;;;;;447.88;422.92;;;16.10;99.90;;;;;;5075125;28;20537;-77
2022/07/23 04:09:58;;;;;;;425.95;401.60;;;16.10;99.90;;;;;;5074150;28;20200;-75
2022/07/23 04:12:24;;;;;;;467.65;440.35;;;16.10;99.90;;;;;;5088051;28;20268;-76
2022/07/23 04:14:50;;;;;;;502.83;473.85;;;16.10;99.90;;;;;;5059403;28;20173;-77
2022/07/23 04:17:16;;;;;;;507.40;478.40;;;16.10;99.90;;;;;;5075840;28;20191;-76
2022/07/23 04:19:43;;;;;;;494.65;466.52;;;16.10;99.90;;;;;;5080972;28;20185;-76
2022/07/23 04:22:10;;;;;;;514.95;485.17;;;16.20;99.90;;;;;;5063947;28;20212;-76
2022/07/23 04:24:36;;;;;;;502.30;472.05;;;16.20;99.90;;;;;;5073379;28;20197;-76
2022/07/23 04:27:02;;;;;;;508.42;478.90;;;16.20;99.90;;;;;;5082531;28;20256;-76
2022/07/23 04:29:27;;;;;;;477.00;450.13;;;16.20;99.90;;;;;;5077959;28;20253;-75
2022/07/23 04:31:53;;;;;;;470.30;443.35;;;16.20;99.90;;;;;;5066057;28;20607;-76
2022/07/23 04:34:19;;;;;;;522.50;491.25;;;16.30;99.90;;;;;;5087678;28;20276;-76
2022/07/23 04:36:44;;;;;;;501.95;472.90;;;16.30;99.90;;;;;;5056631;28;20188;-76
2022/07/23 04:39:10;;;;;;;506.75;476.75;;;16.30;99.90;;;;;;5083758;28;20280;-76
2022/07/23 04:41:36;;;;;;;489.13;460.73;;;16.40;99.90;;;;;;5072624;28;20192;-75
2022/07/23 04:44:02;;;;;;;471.92;444.55;;;16.40;99.90;;;;;;5081794;28;20271;-76
2022/07/23 04:46:28;;;;;;;450.50;425.73;;;16.40;99.90;;;;;;5073904;28;20180;-76
2022/07/23 04:48:54;;;;;;;494.70;466.13;;;16.50;99.90;;;;;;5078498;28;20184;-76
2022/07/23 04:51:20;;;;;;;448.67;422.67;;;16.60;99.90;;;;;;5083509;28;20293;-76
2022/07/23 04:53:46;;;;;;;447.60;422.38;;;16.60;99.90;;;;;;5070774;28;20212;-76
2022/07/23 04:56:12;;;;;;;461.52;434.98;;;16.70;99.90;;;;;;5040821;28;20668;-76
2022/07/23 04:58:38;;;;;;;538.28;506.70;;;16.70;99.90;;;;;;5077085;28;20188;-76
2022/07/23 05:01:03;;;;;;;466.98;441.38;;;16.90;99.90;;;;;;5092010;28;20211;-76
2022/07/23 05:03:29;;;;;;;530.13;497.92;;;16.90;99.90;;;;;;5080040;28;20653;-76
2022/07/23 05:05:55;;;;;;;489.58;461.58;;;17.00;99.90;;;;;;5085879;28;20254;-76
2022/07/23 05:08:21;;;;;;;491.00;462.80;;;17.20;99.90;;;;;;5057910;28;20192;-76
2022/07/23 05:10:46;;;;;;;533.28;502.85;;;17.30;99.90;;;;;;5058711;28;20208;-76
2022/07/23 05:13:15;;;;;;;420.60;397.08;;;17.40;99.90;;;;;;5040074;28;20277;-76
2022/07/23 05:15:41;;;;;;;435.38;411.80;;;17.40;99.90;;;;;;5078503;28;20542;-72
2022/07/23 05:18:07;;;;;;;407.65;385.13;;;17.50;99.90;;;;;;5082080;28;20722;-76
2022/07/23 05:20:32;;;;;;;428.55;404.55;;;17.60;99.90;;;;;;5061870;28;20188;-76
2022/07/23 05:22:58;;;;;;;418.45;397.17;;;17.70;99.90;;;;;;5071902;28;20185;-76
2022/07/23 05:25:24;;;;;;;364.58;345.90;;;18.00;99.90;;;;;;5073626;28;20226;-76
2022/07/23 05:27:50;;;;;;;420.48;398.33;;;18.20;99.90;;;;;;5067598;28;20191;-76
2022/07/23 05:30:15;;;;;;;348.83;331.08;;;18.50;99.90;;;;;;5082821;28;20208;-72
2022/07/23 05:32:41;;;;;;;362.50;343.92;;;18.80;99.90;;;;;;5059735;28;20189;-76
2022/07/23 05:35:07;;;;;;;380.10;360.98;;;19.10;99.90;;;;;;5072996;28;20189;-76
2022/07/23 05:37:33;;;;;;;400.52;379.38;;;19.10;99.90;;;;;;5088660;28;20706;-75
2022/07/23 05:40:07;;;;;;;409.85;388.60;;;19.10;99.90;;;;;;5064219;28;20231;-76
2022/07/23 05:42:37;;;;;;;468.15;444.33;;;18.90;99.90;;;;;;5089892;28;20641;-76
2022/07/23 05:45:04;;;;;;;498.08;472.15;;;18.90;99.90;;;;;;5085576;28;20210;-75
2022/07/23 05:47:39;;;;;;;465.40;440.77;;;19.00;99.90;;;;;;5061028;28;20177;-76
2022/07/23 05:50:05;;;;;;;522.35;492.77;;;19.00;99.90;;;;;;5076921;28;20592;-76
2022/07/23 05:52:31;;;;;;;505.50;478.45;;;18.80;99.90;;;;;;5075646;28;20265;-72
2022/07/23 05:54:57;;;;;;;510.02;483.02;;;18.60;99.90;;;;;;5084481;28;20273;-74
2022/07/23 05:57:22;;;;;;;538.88;506.98;;;18.60;99.90;;;;;;5082977;28;20630;-74
2022/07/23 05:59:48;;;;;;;544.35;515.83;;;18.90;99.90;;;;;;5075269;28;20186;-73
2022/07/23 06:02:14;;;;;;;515.28;488.02;;;19.10;99.90;;;;;;5071031;28;20234;-72
2022/07/23 06:04:39;;;;;;;531.03;502.02;;;19.10;99.90;;;;;;5058259;28;20185;-72
2022/07/23 06:07:05;;;;;;;514.00;486.52;;;19.20;99.90;;;;;;5072923;28;20205;-71
2022/07/23 06:09:30;;;;;;;591.92;556.25;;;19.30;99.90;;;;;;5076139;28;20205;-75
2022/07/23 06:11:56;;;;;;;559.47;526.60;;;19.40;99.90;;;;;;5085251;28;20206;-73
2022/07/23 06:14:22;;;;;;;551.97;521.22;;;19.40;99.90;;;;;;5047906;28;20181;-73
2022/07/23 06:16:48;;;;;;;503.30;474.85;;;19.40;99.90;;;;;;5079781;28;20199;-73
2022/07/23 06:19:13;;;;;;;539.17;508.02;;;19.30;99.90;;;;;;5082438;28;20177;-74
2022/07/23 06:21:39;;;;;;;572.63;537.33;;;19.40;99.90;;;;;;5086238;28;20181;-74
2022/07/23 06:24:05;;;;;;;534.35;503.30;;;19.60;99.90;;;;;;5089205;28;20301;-73
2022/07/23 06:26:30;;;;;;;537.00;506.23;;;19.90;99.90;;;;;;5082788;28;20178;-73
2022/07/23 06:28:56;;;;;;;511.20;483.73;;;19.90;99.90;;;;;;5070344;28;20188;-72
2022/07/23 06:31:21;;;;;;;527.63;498.42;;;20.00;99.90;;;;;;5048785;28;20626;-74
2022/07/23 06:33:47;;;;;;;580.00;542.42;;;20.00;99.90;;;;;;5075506;28;20669;-73
2022/07/23 06:36:13;;;;;;;571.72;537.60;;;19.80;99.90;;;;;;5069472;28;20185;-73
2022/07/23 06:38:38;;;;;;;585.35;546.85;;;19.70;99.90;;;;;;5079281;28;20713;-73
2022/07/23 06:41:04;;;;;;;590.80;555.58;;;19.70;99.90;;;;;;5075608;28;20196;-73
2022/07/23 06:43:31;;;;;;;548.58;515.28;;;19.70;99.90;;;;;;5074396;28;20173;-71
2022/07/23 06:45:56;;;;;;;553.08;521.47;;;19.90;99.90;;;;;;5083802;28;20276;-74
2022/07/23 06:48:22;;;;;;;553.70;519.88;;;19.80;99.90;;;;;;5069919;28;20583;-74
2022/07/23 06:50:48;;;;;;;534.20;503.63;;;19.70;99.90;;;;;;5095428;28;20246;-73
2022/07/23 06:53:14;;;;;;;584.88;548.58;;;19.90;99.90;;;;;;5067414;28;20235;-73
2022/07/23 06:55:40;;;;;;;563.40;530.50;;;19.90;99.90;;;;;;5091579;28;20540;-72
2022/07/23 06:58:05;;;;;;;533.60;504.67;;;19.80;99.90;;;;;;5081941;28;20189;-73
2022/07/23 07:00:32;;;;;;;534.60;505.33;;;19.90;99.90;;;;;;5058126;28;20180;-72
2022/07/23 07:02:58;;;;;;;532.88;502.98;;;19.60;99.90;;;;;;5083752;28;20201;-74
2022/07/23 07:05:25;;;;;;;513.05;486.33;;;19.30;99.90;;;;;;5077721;28;20208;-74
2022/07/23 07:07:50;;;;;;;547.38;516.60;;;19.20;99.90;;;;;;5063837;28;20184;-74
2022/07/23 07:10:17;;;;;;;547.85;518.53;;;19.10;99.90;;;;;;5079087;28;20209;-74
2022/07/23 07:12:43;;;;;;;485.52;461.95;;;19.30;99.90;;;;;;5077218;28;20182;-74
2022/07/23 07:15:09;;;;;;;520.53;492.95;;;19.50;99.90;;;;;;5053314;28;20269;-74
2022/07/23 07:17:34;;;;;;;496.35;469.83;;;19.50;99.90;;;;;;5087535;28;20649;-74
2022/07/23 07:20:00;;;;;;;555.22;523.63;;;19.70;99.90;;;;;;5086592;28;20193;-74
2022/07/23 07:22:26;;;;;;;535.03;505.83;;;20.40;99.90;;;;;;5090803;28;20181;-74
2022/07/23 07:24:51;;;;;;;464.65;439.40;;;21.90;99.90;;;;;;5070240;28;20184;-75
2022/07/23 07:27:17;;;;;;;528.47;493.13;;;23.80;99.90;;;;;;5053494;28;20510;-75
2022/07/23 07:29:43;;;;;;;556.22;516.20;;;24.80;99.90;;;;;;5074557;28;20475;-75
2022/07/23 07:32:09;;;;;;;718.45;661.20;;;26.30;99.90;;;;;;5090677;28;20217;-76
2022/07/23 07:34:34;;;;;;;575.72;525.00;;;27.80;99.90;;;;;;5060579;28;20180;-76
2022/07/23 07:37:00;;;;;;;348.42;313.08;;;27.40;99.90;;;;;;5050014;28;20180;-76
2022/07/23 07:39:26;;;;;;;1999.90;999.90;;;27.60;99.90;;;;;;5069526;28;20180;-76
2022/07/23 07:41:51;;;;;;;1999.90;999.90;;;28.90;99.90;;;;;;5086698;28;20241;-77
2022/07/23 07:44:17;;;;;;;1999.90;999.90;;;28.90;99.90;;;;;;5065835;28;20224;-77
2022/07/23 07:46:43;;;;;;;1999.90;999.90;;;29.60;99.90;;;;;;5084280;28;20263;-77
2022/07/23 07:49:08;;;;;;;1999.90;999.90;;;29.50;99.90;;;;;;5089724;28;20184;-76
2022/07/23 07:51:34;;;;;;;1511.68;759.28;;;29.20;99.90;;;;;;5077211;28;20193;-77
2022/07/23 07:54:00;;;;;;;1999.90;999.90;;;29.20;99.90;;;;;;5078737;28;20292;-75
2022/07/23 07:56:26;;;;;;;1999.90;999.90;;;29.70;99.90;;;;;;5071536;28;20248;-78
2022/07/23 07:58:51;;;;;;;1999.90;999.90;;;30.40;99.90;;;;;;5062078;28;20259;-78
2022/07/23 08:01:19;;;;;;;1999.90;999.90;;;31.40;99.90;;;;;;5073099;28;20260;-78
2022/07/23 08:03:45;;;;;;;1999.90;999.90;;;32.80;99.90;;;;;;5082681;28;20241;-77
2022/07/23 08:06:11;;;;;;;1999.90;999.90;;;33.20;99.90;;;;;;5089193;28;20292;-78
2022/07/23 08:08:36;;;;;;;1465.70;999.90;;;32.40;99.90;;;;;;5063611;28;20669;-78
2022/07/23 08:11:02;;;;;;;1380.35;999.90;;;31.50;99.90;;;;;;5079041;28;20242;-76
2022/07/23 08:13:27;;;;;;;1334.55;999.90;;;31.60;99.90;;;;;;5075903;28;20199;-77
2022/07/23 08:15:53;;;;;;;1283.70;999.90;;;31.90;99.90;;;;;;5086338;28;20180;-77
2022/07/23 08:18:19;;;;;;;1188.03;999.90;;;31.70;99.90;;;;;;5075333;28;20216;-77
2022/07/23 08:20:45;;;;;;;937.95;869.13;;;32.00;99.90;;;;;;5045275;28;20180;-77
2022/07/23 08:23:11;;;;;;;742.20;691.60;;;33.00;99.90;;;;;;5076873;28;20226;-76
2022/07/23 08:25:39;;;;;;;633.95;592.50;;;32.60;99.90;;;;;;5051342;28;20195;-76
2022/07/23 08:28:08;;;;;;;628.38;588.22;;;31.60;99.90;;;;;;5085166;28;20180;-76
2022/07/23 08:30:34;;;;;;;542.90;508.70;;;31.40;99.90;;;;;;5074438;28;20195;-76
2022/07/23 08:33:10;;;;;;;446.52;419.13;;;31.40;99.90;;;;;;5077018;28;20187;-76
2022/07/23 08:35:42;;;;;;;522.33;487.48;;;32.10;99.90;;;;;;5078608;28;20542;-76
2022/07/23 08:38:10;;;;;;;531.20;496.63;;;32.70;99.90;;;;;;5075806;28;20530;-76
2022/07/23 08:40:39;;;;;;;529.78;495.85;;;33.70;99.90;;;;;;5073868;28;20242;-76
2022/07/23 08:43:09;;;;;;;630.83;587.50;;;33.50;99.90;;;;;;5084395;28;20259;-76
2022/07/23 08:45:47;;;;;;;561.55;524.53;;;33.40;99.90;;;;;;5084296;28;20621;-75
2022/07/23 08:48:24;;;;;;;528.63;495.27;;;31.80;99.90;;;;;;5078404;28;20260;-75
2022/07/23 08:51:00;;;;;;;499.08;466.33;;;32.30;99.90;;;;;;5079936;28;20195;-75
2022/07/23 08:53:27;;;;;;;540.33;506.38;;;32.10;99.90;;;;;;5077109;28;20271;-75
2022/07/23 08:55:55;;;;;;;507.00;476.10;;;33.00;99.90;;;;;;5070521;28;20535;-75
2022/07/23 08:58:21;;;;;;;555.75;520.58;;;32.00;99.90;;;;;;5055026;28;20583;-75
2022/07/23 09:00:47;;;;;;;558.15;524.38;;;32.50;99.90;;;;;;5083101;28;20229;-75
2022/07/23 09:03:33;;;;;;;650.63;609.60;;;32.60;99.90;;;;;;5062388;28;20676;-75
2022/07/23 09:06:01;;;;;;;598.95;559.72;;;32.70;99.90;;;;;;5087937;28;20187;-76
2022/07/23 09:08:38;;;;;;;783.63;728.60;;;33.80;99.90;;;;;;5088050;28;20184;-76
2022/07/23 09:11:08;;;;;;;790.92;735.42;;;34.50;99.90;;;;;;5077906;28;20279;-75
2022/07/23 09:13:38;;;;;;;840.58;779.47;;;34.30;99.90;;;;;;5079138;28;20191;-76
2022/07/23 09:16:08;;;;;;;829.28;767.90;;;34.30;99.90;;;;;;5084397;28;20670;-75
2022/07/23 09:18:49;;;;;;;867.10;803.70;;;34.80;99.90;;;;;;5075614;28;20263;-75
2022/07/23 09:21:19;;;;;;;971.95;896.20;;;35.60;99.90;;;;;;5085319;28;20267;-75
2022/07/23 09:24:03;;;;;;;1005.05;923.67;;;34.70;99.90;;;;;;5087207;28;20173;-75
2022/07/23 09:26:40;;;;;;;944.78;873.25;;;34.40;99.90;;;;;;5079528;28;20176;-75
2022/07/23 09:29:12;;;;;;;900.28;833.08;;;33.60;99.90;;;;;;5082843;28;20249;-74
2022/07/23 09:31:46;;;;;;;905.75;839.42;;;33.30;99.90;;;;;;5095563;28;20194;-74
2022/07/23 09:34:13;;;;;;;926.38;857.00;;;33.50;99.90;;;;;;5090660;28;20264;-74
2022/07/23 09:36:39;;;;;;;883.92;822.13;;;33.10;99.90;;;;;;5087758;28;20603;-74
2022/07/23 09:39:05;;;;;;;858.83;797.05;;;31.90;99.90;;;;;;5055658;28;20184;-74
2022/07/23 09:41:45;;;;;;;889.22;824.47;;;31.20;99.90;;;;;;5061402;28;20176;-75
2022/07/23 09:44:18;;;;;;;843.78;784.10;;;30.20;99.90;;;;;;5076589;28;20176;-74
2022/07/23 09:46:48;;;;;;;855.47;795.63;;;29.30;99.90;;;;;;5088953;28;20204;-75
2022/07/23 09:49:21;;;;;;;685.63;641.80;;;28.40;99.90;;;;;;5090367;28;20168;-74
2022/07/23 09:51:56;;;;;;;682.65;640.42;;;26.90;99.90;;;;;;5092068;28;20176;-74
2022/07/23 09:54:26;;;;;;;484.15;457.77;;;26.30;99.90;;;;;;5086297;28;20648;-75
2022/07/23 09:56:53;;;;;;;415.38;394.70;;;25.60;99.90;;;;;;5092392;28;20176;-74
2022/07/23 09:59:24;;;;;;;325.40;309.85;;;25.20;99.90;;;;;;5094232;28;20242;-74
2022/07/23 10:01:51;;;;;;;307.95;293.10;;;25.40;99.90;;;;;;5081545;28;20530;-74
2022/07/23 10:04:18;;;;;;;317.73;301.42;;;25.90;99.90;;;;;;5087162;28;20181;-74
2022/07/23 10:06:45;;;;;;;248.05;236.23;;;26.20;99.90;;;;;;5051885;28;20649;-74
2022/07/23 10:09:15;;;;;;;273.08;260.10;;;25.50;99.90;;;;;;5069383;28;20680;-75
2022/07/23 10:11:42;;;;;;;273.40;259.90;;;25.20;99.90;;;;;;5083837;28;20182;-75
2022/07/23 10:14:08;;;;;;;260.15;247.50;;;25.40;99.90;;;;;;5060498;28;20552;-75
2022/07/23 10:16:34;;;;;;;264.20;251.93;;;25.80;99.90;;;;;;5046751;28;20178;-75
2022/07/23 10:19:02;;;;;;;274.23;261.45;;;25.30;99.90;;;;;;5087414;28;20184;-73
2022/07/23 10:21:39;;;;;;;271.85;259.08;;;25.40;99.90;;;;;;5085503;28;20216;-75
2022/07/23 10:24:30;;;;;;;263.80;251.95;;;25.10;99.90;;;;;;5076437;28;20246;-74
2022/07/23 10:27:06;;;;;;;281.50;268.65;;;25.30;99.90;;;;;;5094301;28;20199;-75
2022/07/23 10:29:40;;;;;;;283.73;270.70;;;25.60;99.90;;;;;;5086116;28;20256;-75
2022/07/23 10:32:31;;;;;;;257.65;245.88;;;25.60;99.90;;;;;;5068395;28;20207;-74
2022/07/23 10:35:22;;;;;;;269.98;258.15;;;25.60;99.90;;;;;;5063695;28;20606;-74
2022/07/23 10:37:54;;;;;;;253.63;241.90;;;25.60;99.90;;;;;;5094620;28;20183;-73
2022/07/23 10:40:23;;;;;;;236.68;225.65;;;25.70;99.90;;;;;;5081500;28;20173;-73
2022/07/23 10:42:55;;;;;;;246.60;234.98;;;25.40;99.90;;;;;;5075590;28;20217;-74
2022/07/23 10:45:29;;;;;;;254.43;242.23;;;25.50;99.90;;;;;;5086466;28;20553;-73
2022/07/23 10:48:12;;;;;;;266.88;254.23;;;25.70;99.90;;;;;;5088210;28;20641;-74
2022/07/23 10:50:38;;;;;;;247.20;235.52;;;25.70;99.90;;;;;;5091280;28;20645;-74
2022/07/23 10:53:11;;;;;;;297.13;282.30;;;26.10;99.90;;;;;;5076051;28;20189;-73
2022/07/23 10:55:37;;;;;;;348.20;330.77;;;26.40;99.90;;;;;;5084603;28;20180;-73
2022/07/23 10:58:05;;;;;;;327.50;310.70;;;26.40;99.90;;;;;;5074447;28;20185;-71
2022/07/23 11:00:32;;;;;;;461.65;436.17;;;26.30;99.90;;;;;;5080332;28;20180;-69
2022/07/23 11:03:00;;;;;;;381.65;363.08;;;26.30;99.90;;;;;;5068430;28;20197;-69
2022/07/23 11:05:46;;;;;;;346.20;328.45;;;26.30;99.90;;;;;;5081172;28;20200;-69
2022/07/23 11:08:15;;;;;;;325.08;309.63;;;26.70;99.90;;;;;;5082565;28;20196;-71
2022/07/23 11:11:06;;;;;;;400.42;379.88;;;26.80;99.90;;;;;;5088191;28;20196;-70
2022/07/23 11:13:32;;;;;;;318.67;303.35;;;26.70;99.90;;;;;;5074731;28;20182;-71
2022/07/23 11:16:01;;;;;;;335.08;318.77;;;26.50;99.90;;;;;;5065689;28;20185;-72
2022/07/23 11:18:47;;;;;;;347.45;329.92;;;26.70;99.90;;;;;;5074694;28;20196;-72
2022/07/23 11:21:31;;;;;;;441.98;418.63;;;26.60;99.90;;;;;;5092695;28;20649;-71
2022/07/23 11:23:57;;;;;;;391.25;371.17;;;26.30;99.90;;;;;;5074963;28;20180;-71
2022/07/23 11:26:43;;;;;;;415.90;393.30;;;26.20;99.90;;;;;;5090714;28;20664;-71
2022/07/23 11:31:54;;;;;;;313.80;298.63;;;25.30;99.90;;;;;;5084942;28;20220;-71
2022/07/23 11:34:39;;;;;;;367.05;348.25;;;25.30;99.90;;;;;;5086969;28;20199;-71
2022/07/23 11:37:07;;;;;;;322.60;307.00;;;25.50;99.90;;;;;;5078781;28;20168;-72
2022/07/23 11:39:33;;;;;;;350.27;332.75;;;25.80;99.90;;;;;;5082284;28;20175;-72
2022/07/23 11:42:00;;;;;;;379.85;360.25;;;25.80;99.90;;;;;;5074919;28;20219;-71
2022/07/23 11:44:30;;;;;;;316.13;299.85;;;25.80;99.90;;;;;;5084758;28;20200;-72
2022/07/23 11:47:04;;;;;;;328.85;312.88;;;25.90;99.90;;;;;;5070241;28;20660;-71
2022/07/23 11:49:30;;;;;;;332.67;316.55;;;25.90;99.90;;;;;;5066813;28;20177;-71
2022/07/23 11:52:13;;;;;;;291.58;277.27;;;25.90;99.90;;;;;;5091256;28;20207;-72
2022/07/23 11:54:49;;;;;;;387.08;367.38;;;26.00;99.90;;;;;;5084898;28;20689;-71
2022/07/23 11:57:15;;;;;;;374.95;356.10;;;25.80;99.90;;;;;;5071653;28;20180;-69
2022/07/23 11:59:43;;;;;;;511.83;484.83;;;25.70;99.90;;;;;;5063093;28;20191;-69
2022/07/23 12:02:09;;;;;;;353.08;334.63;;;25.90;99.90;;;;;;5045050;28;20188;-70
2022/07/23 12:04:41;;;;;;;386.08;366.05;;;25.90;99.90;;;;;;5062906;28;20185;-69
2022/07/23 12:07:53;;;;;;;341.08;324.20;;;26.10;99.90;;;;;;5080081;27;1260440;-70
2022/07/23 12:10:22;;;;;;;390.92;371.83;;;26.50;99.90;;;;;;5007636;28;20238;-72
2022/07/23 12:12:50;;;;;;;447.30;423.65;;;26.50;99.90;;;;;;5001711;28;20614;-71
2022/07/23 12:15:19;;;;;;;516.38;487.27;;;26.50;99.90;;;;;;5050052;28;20203;-73